Time;durP1;ratioP1;P1;durP2;ratioP2;P2;SDS_P1;SDS_P2;PMS_P1;PMS_P2;Temp;Humidity;BMP_temperature;BMP_pressure;BME280_temperature;BME280_humidity;BME280_pressure;Samples;Min_cycle;Max_cycle;Signal;HPM_P1;HPM_P2
2021/10/11 00:01:07;;;;;;;31.75;18.13;;;7.60;99.90;;;5.90;99.57;102182.28;2569943;30;137488;-39
2021/10/11 00:03:34;;;;;;;31.67;18.02;;;7.50;99.90;;;5.90;99.47;102169.59;2568728;30;138235;-39
2021/10/11 00:06:02;;;;;;;33.85;18.88;;;7.60;99.90;;;5.79;99.16;102149.97;2570921;30;137054;-39
2021/10/11 00:08:29;;;;;;;35.03;19.88;;;7.50;99.90;;;5.94;99.45;102174.72;2568848;30;138282;-39
2021/10/11 00:10:57;;;;;;;38.38;20.08;;;7.50;99.90;;;5.95;99.88;102179.97;2568990;30;137750;-39
2021/10/11 00:13:26;;;;;;;;;;;7.60;99.90;;;5.96;100.00;102167.28;2569684;30;137338;-43
2021/10/11 00:15:53;;;;;;;39.45;21.45;;;7.60;99.90;;;6.05;100.00;102171.84;2569594;30;137472;-39
2021/10/11 00:18:21;;;;;;;38.38;21.60;;;7.60;99.90;;;6.09;100.00;102178.66;2569765;30;138227;-39
2021/10/11 00:20:48;;;;;;;40.08;22.38;;;7.70;99.90;;;6.17;100.00;102189.63;2568644;30;136949;-39
2021/10/11 00:23:16;;;;;;;42.38;22.70;;;7.70;99.90;;;6.22;100.00;102178.31;2568760;30;137357;-39
2021/10/11 00:25:46;;;;;;;36.13;20.90;;;7.80;99.90;;;6.31;100.00;102184.69;2568720;30;137744;-39
2021/10/11 00:28:13;;;;;;;38.78;22.33;;;7.90;99.90;;;6.37;100.00;102184.09;2565564;30;137931;-39
2021/10/11 00:30:42;;;;;;;38.70;22.08;;;8.00;99.90;;;6.47;100.00;102181.31;2571851;30;137913;-39
2021/10/11 00:33:09;;;;;;;41.97;23.17;;;8.00;99.90;;;6.53;100.00;102175.31;2568302;30;138501;-39
2021/10/11 00:35:37;;;;;;;39.72;22.48;;;8.10;99.90;;;6.61;100.00;102183.53;2570178;30;137539;-39
2021/10/11 00:38:04;;;;;;;41.72;24.13;;;8.20;99.90;;;6.67;100.00;102171.22;2569236;30;138104;-39
2021/10/11 00:40:32;;;;;;;;;;;8.20;99.90;;;6.74;100.00;102179.56;2568349;30;137560;-39
2021/10/11 00:43:03;;;;;;;42.88;24.15;;;8.30;99.90;;;6.80;100.00;102186.25;2568789;30;139524;-39
2021/10/11 00:45:31;;;;;;;;;;;8.40;99.90;;;6.84;100.00;102177.66;2565672;30;137797;-39
2021/10/11 00:47:58;;;;;;;45.10;24.02;;;8.40;99.90;;;6.93;100.00;102185.88;2569647;30;137889;-39
2021/10/11 00:50:26;;;;;;;44.00;25.20;;;8.50;99.90;;;6.95;100.00;102179.28;2568268;30;137436;-39
2021/10/11 00:52:55;;;;;;;41.45;23.25;;;8.50;99.90;;;7.05;100.00;102182.75;2568422;30;137980;-39
2021/10/11 00:55:24;;;;;;;43.95;23.90;;;8.60;99.90;;;7.10;100.00;102185.03;2571092;30;136790;-39
2021/10/11 00:57:52;;;;;;;42.63;25.35;;;8.60;99.90;;;7.15;100.00;102184.53;2568294;30;137796;-41
2021/10/11 01:00:19;;;;;;;43.40;24.73;;;8.70;99.90;;;7.19;100.00;102175.91;2569733;30;137612;-39
2021/10/11 01:02:47;;;;;;;45.53;24.60;;;8.70;99.90;;;7.24;100.00;102189.03;2567059;30;139052;-39
2021/10/11 01:05:15;;;;;;;43.92;25.00;;;8.80;99.90;;;7.27;100.00;102180.56;2568873;30;137481;-39
2021/10/11 01:07:43;;;;;;;46.63;25.63;;;8.80;99.90;;;7.31;100.00;102186.56;2567167;30;138270;-39
2021/10/11 01:10:10;;;;;;;;;;;8.80;99.90;;;7.31;100.00;102179.25;2568777;30;138462;-39
2021/10/11 01:12:38;;;;;;;48.25;26.05;;;8.90;99.90;;;7.39;100.00;102183.03;2568691;30;138400;-40
2021/10/11 01:15:07;;;;;;;54.50;28.67;;;8.90;99.90;;;7.45;100.00;102187.84;2568160;30;137272;-39
2021/10/11 01:17:34;;;;;;;50.13;27.35;;;9.00;99.90;;;7.50;100.00;102190.94;2568965;30;139132;-39
2021/10/11 01:20:04;;;;;;;47.58;26.35;;;9.00;99.90;;;7.54;100.00;102189.59;2569168;30;137860;-39
2021/10/11 01:22:57;;;;;;;44.85;25.02;;;9.10;99.90;;;7.47;100.00;102164.94;2569667;30;139087;-39
2021/10/11 01:25:25;;;;;;;47.92;27.33;;;9.10;99.90;;;7.63;100.00;102185.09;2568074;30;137788;-39
2021/10/11 01:27:52;;;;;;;47.30;26.70;;;9.20;99.90;;;7.66;100.00;102182.03;2569524;30;137883;-40
2021/10/11 01:30:20;;;;;;;47.50;26.75;;;9.20;99.90;;;7.67;100.00;102180.16;2569350;30;136783;-39
2021/10/11 01:32:48;;;;;;;48.13;26.00;;;9.20;99.90;;;7.73;100.00;102180.38;2568538;30;137910;-39
2021/10/11 01:35:16;;;;;;;45.60;26.08;;;9.30;99.90;;;7.76;100.00;102177.34;2569663;30;137661;-39
2021/10/11 01:37:47;;;;;;;46.45;25.67;;;9.30;99.90;;;7.80;100.00;102177.00;2570071;30;138331;-39
2021/10/11 01:40:16;;;;;;;46.88;26.35;;;9.30;99.90;;;7.74;100.00;102156.78;2570503;30;137355;-39
2021/10/11 01:42:44;;;;;;;48.53;27.27;;;9.40;99.90;;;7.86;100.00;102176.41;2568162;30;137590;-39
2021/10/11 01:45:13;;;;;;;52.05;28.30;;;9.40;99.90;;;7.88;100.00;102179.81;2568165;30;137017;-39
2021/10/11 01:47:41;;;;;;;52.13;28.25;;;9.40;99.90;;;7.95;100.00;102179.97;2569532;30;137181;-39
2021/10/11 01:50:09;;;;;;;48.53;27.85;;;9.50;99.90;;;7.98;100.00;102175.09;2567640;30;137181;-39
2021/10/11 01:52:36;;;;;;;47.67;27.15;;;9.50;99.90;;;8.00;100.00;102167.63;2567884;30;137468;-39
2021/10/11 01:55:06;;;;;;;52.50;29.92;;;9.50;99.90;;;8.06;100.00;102171.56;2569602;30;137767;-39
2021/10/11 01:57:36;;;;;;;47.20;27.48;;;9.60;99.90;;;8.09;100.00;102163.06;2568448;30;139039;-39
2021/10/11 02:00:10;;;;;;;52.17;30.45;;;9.60;99.90;;;8.12;100.00;102160.03;2572927;30;138288;-40
2021/10/11 02:02:40;;;;;;;48.75;28.00;;;9.60;99.90;;;8.15;100.00;102159.69;2568071;30;138377;-40
2021/10/11 02:05:09;;;;;;;48.45;27.05;;;9.60;99.90;;;8.18;100.00;102153.94;2569116;30;136925;-40
2021/10/11 02:07:37;;;;;;;50.85;28.33;;;9.70;99.90;;;8.20;100.00;102157.34;2565646;30;137980;-40
2021/10/11 02:10:07;;;;;;;53.97;31.08;;;9.70;99.90;;;8.24;100.00;102159.75;2567981;30;137403;-40
2021/10/11 02:12:34;;;;;;;53.83;27.92;;;9.70;99.90;;;8.27;100.00;102153.97;2569269;30;139134;-40
2021/10/11 02:15:04;;;;;;;56.05;30.63;;;9.70;99.90;;;8.29;100.00;102155.50;2568651;30;137554;-41
2021/10/11 02:17:31;;;;;;;54.65;30.13;;;9.80;99.90;;;8.32;100.00;102159.78;2567359;30;138572;-40
2021/10/11 02:19:59;;;;;;;60.85;31.55;;;9.80;99.90;;;8.35;100.00;102154.88;2567974;30;137431;-40
2021/10/11 02:22:26;;;;;;;59.08;32.80;;;9.90;99.90;;;8.37;100.00;102149.25;2568029;30;137915;-40
2021/10/11 02:24:54;;;;;;;53.67;29.23;;;9.90;99.90;;;8.41;100.00;102147.88;2568183;30;137436;-41
2021/10/11 02:27:21;;;;;;;51.42;29.23;;;9.90;99.90;;;8.43;100.00;102147.75;2568606;30;138394;-40
2021/10/11 02:29:49;;;;;;;60.80;31.83;;;9.90;99.90;;;8.46;100.00;102142.81;2565137;30;137530;-40
2021/10/11 02:32:21;;;;;;;58.15;32.60;;;10.00;99.90;;;8.48;100.00;102143.47;2569101;30;138372;-41
2021/10/11 02:34:48;;;;;;;59.78;32.17;;;10.00;99.90;;;8.53;100.00;102148.47;2566213;30;138027;-41
2021/10/11 02:37:16;;;;;;;60.08;32.55;;;10.00;99.90;;;8.56;100.00;102144.56;2568601;30;136851;-41
2021/10/11 02:39:43;;;;;;;64.40;34.22;;;10.00;99.90;;;8.58;100.00;102137.94;2567008;30;137582;-38
2021/10/11 02:42:11;;;;;;;63.08;33.92;;;10.00;99.90;;;8.61;100.00;102136.75;2568081;30;138499;-38
2021/10/11 02:44:39;;;;;;;66.47;34.58;;;10.10;99.90;;;8.63;100.00;102151.03;2564877;30;137122;-41
2021/10/11 02:47:07;;;;;;;72.90;36.80;;;10.10;99.90;;;8.65;100.00;102143.56;2567817;30;138182;-40
2021/10/11 02:49:36;;;;;;;63.45;34.53;;;10.20;99.90;;;8.71;100.00;102145.59;2568721;30;137602;-41
2021/10/11 02:52:04;;;;;;;65.13;33.88;;;10.20;99.90;;;8.75;100.00;102143.41;2568751;30;138097;-40
2021/10/11 02:54:32;;;;;;;63.30;34.72;;;10.20;99.90;;;8.79;100.00;102139.31;2568976;30;137635;-41
2021/10/11 02:56:59;;;;;;;61.55;35.45;;;10.30;99.90;;;8.87;100.00;102143.94;2566089;30;138239;-41
2021/10/11 02:59:27;;;;;;;69.32;37.33;;;10.30;99.90;;;8.78;100.00;102149.38;2568564;30;137140;-40
2021/10/11 03:01:54;;;;;;;73.10;39.92;;;10.30;99.90;;;8.87;100.00;102157.53;2568637;30;138532;-40
2021/10/11 03:04:22;;;;;;;68.72;35.10;;;10.30;99.90;;;8.85;100.00;102154.13;2567972;30;137182;-40
2021/10/11 03:06:49;;;;;;;67.43;35.45;;;10.40;99.90;;;8.86;100.00;102156.69;2567526;30;137748;-41
2021/10/11 03:09:16;;;;;;;65.35;34.67;;;10.30;99.90;;;8.87;100.00;102149.38;2568749;30;136919;-40
2021/10/11 03:11:44;;;;;;;64.80;35.15;;;10.30;99.90;;;8.86;100.00;102153.13;2567709;30;137116;-40
2021/10/11 03:14:12;;;;;;;58.50;32.88;;;10.30;99.90;;;8.86;100.00;102164.84;2568278;30;137097;-41
2021/10/11 03:16:39;;;;;;;64.65;33.83;;;10.40;99.90;;;8.86;100.00;102167.56;2566263;30;138928;-40
2021/10/11 03:19:07;;;;;;;60.78;34.25;;;10.40;99.90;;;8.86;100.00;102167.56;2568794;30;138244;-38
2021/10/11 03:21:34;;;;;;;60.17;34.58;;;10.40;99.90;;;8.87;100.00;102169.25;2568284;30;138248;-40
2021/10/11 03:24:01;;;;;;;64.07;33.88;;;10.30;99.90;;;8.88;100.00;102164.69;2565974;30;137164;-40
2021/10/11 03:26:29;;;;;;;55.83;31.42;;;10.40;99.90;;;8.90;100.00;102160.78;2567662;30;138266;-40
2021/10/11 03:28:57;;;;;;;61.53;34.67;;;10.40;99.90;;;8.95;100.00;102153.97;2566824;30;136905;-40
2021/10/11 03:31:24;;;;;;;61.78;33.63;;;10.40;99.90;;;8.95;100.00;102160.25;2568087;30;138188;-40
2021/10/11 03:33:51;;;;;;;62.35;34.35;;;10.40;99.90;;;8.95;100.00;102154.81;2567463;30;137103;-40
2021/10/11 03:36:19;;;;;;;60.20;32.33;;;10.40;99.90;;;8.95;100.00;102159.44;2566973;30;138394;-40
2021/10/11 03:38:47;;;;;;;59.92;33.58;;;10.40;99.90;;;8.95;100.00;102156.69;2568130;30;137531;-40
2021/10/11 03:41:14;;;;;;;55.70;30.83;;;10.40;99.90;;;8.95;100.00;102154.81;2567629;30;138139;-40
2021/10/11 03:43:41;;;;;;;59.13;32.97;;;10.50;99.90;;;8.95;100.00;102149.38;2568752;30;137436;-40
2021/10/11 03:46:09;;;;;;;53.00;29.77;;;10.50;99.90;;;8.97;100.00;102151.94;2568729;30;138246;-40
2021/10/11 03:48:37;;;;;;;56.25;31.67;;;10.50;99.90;;;8.96;100.00;102151.06;2567233;30;137905;-40
2021/10/11 03:51:04;;;;;;;61.72;32.90;;;10.50;99.90;;;8.97;100.00;102152.78;2568357;30;138948;-40
2021/10/11 03:53:32;;;;;;;57.08;31.40;;;10.50;99.90;;;8.96;100.00;102150.25;2565438;30;138152;-40
2021/10/11 03:55:59;;;;;;;54.90;30.63;;;10.40;99.90;;;8.96;100.00;102152.97;2566744;30;137222;-41
2021/10/11 03:58:27;;;;;;;57.90;31.73;;;10.40;99.90;;;8.97;100.00;102141.88;2568176;30;138367;-40
2021/10/11 04:00:54;;;;;;;59.33;32.22;;;10.50;99.90;;;8.98;100.00;102146.31;2567808;30;139173;-40
2021/10/11 04:03:22;;;;;;;56.85;31.98;;;10.50;99.90;;;8.98;100.00;102143.59;2568631;30;137541;-40
2021/10/11 04:05:50;;;;;;;53.65;30.05;;;10.50;99.90;;;8.98;100.00;102140.03;2566490;30;138250;-40
2021/10/11 04:08:20;;;;;;;53.90;30.10;;;10.50;99.90;;;8.98;100.00;102138.13;2566846;30;137511;-40
2021/10/11 04:13:21;;;;;;;61.25;31.92;;;10.50;99.90;;;8.98;100.00;102132.69;2565700;30;137907;-40
2021/10/11 04:15:49;;;;;;;;;;;10.50;99.90;;;8.99;100.00;102134.41;2568178;30;138144;-40
2021/10/11 04:18:17;;;;;;;51.33;28.92;;;10.50;99.90;;;8.99;100.00;102139.84;2567503;30;136756;-40
2021/10/11 04:20:45;;;;;;;51.35;28.85;;;10.50;99.90;;;8.99;100.00;102133.56;2567511;30;138975;-40
2021/10/11 04:23:13;;;;;;;56.60;29.77;;;10.50;99.90;;;8.97;100.00;102128.28;2567461;30;138024;-40
2021/10/11 04:25:41;;;;;;;49.53;28.85;;;10.50;99.90;;;8.99;100.00;102128.13;2568140;30;138185;-40
2021/10/11 04:28:11;;;;;;;52.40;27.98;;;10.50;99.90;;;8.98;100.00;102131.88;2566956;30;136848;-40
2021/10/11 04:30:40;;;;;;;54.08;29.27;;;10.50;99.90;;;8.98;100.00;102137.31;2568624;30;139393;-40
2021/10/11 04:33:09;;;;;;;57.10;31.00;;;10.50;99.90;;;9.01;100.00;102137.78;2567192;30;138006;-40
2021/10/11 04:35:37;;;;;;;55.70;29.52;;;10.50;99.90;;;9.02;100.00;102147.69;2568271;30;138656;-40
2021/10/11 04:38:05;;;;;;;53.35;29.77;;;10.50;99.90;;;9.04;100.00;102147.50;2566670;30;137352;-40
2021/10/11 04:40:34;;;;;;;51.47;27.63;;;10.50;99.90;;;9.03;100.00;102146.69;2568396;30;138453;-40
2021/10/11 04:43:02;;;;;;;54.88;29.17;;;10.50;99.90;;;9.04;100.00;102145.66;2567730;30;138552;-40
2021/10/11 04:45:31;;;;;;;48.50;26.65;;;10.50;99.90;;;9.05;100.00;102143.75;2567929;30;137334;-40
2021/10/11 04:48:03;;;;;;;52.33;28.35;;;10.50;99.90;;;9.07;100.00;102148.03;2567986;30;137451;-40
2021/10/11 04:50:33;;;;;;;47.63;27.08;;;10.50;99.90;;;9.09;100.00;102155.19;2566767;30;139057;-40
2021/10/11 04:53:02;;;;;;;44.53;25.98;;;10.60;99.90;;;9.11;100.00;102158.56;2567250;30;136960;-40
2021/10/11 04:55:30;;;;;;;44.03;24.75;;;10.60;99.90;;;9.12;100.00;102161.13;2568005;30;138362;-40
2021/10/11 04:57:58;;;;;;;42.17;23.33;;;10.60;99.90;;;9.16;100.00;102154.34;2566651;30;137496;-40
2021/10/11 05:00:25;;;;;;;40.35;22.50;;;10.60;99.90;;;9.19;100.00;102155.84;2567984;30;139492;-40
2021/10/11 05:02:53;;;;;;;39.28;21.83;;;10.60;99.90;;;9.24;100.00;102163.50;2567123;30;137329;-40
2021/10/11 20:02:57;;;;;;;5.88;2.22;;;13.50;99.90;;;8.17;96.72;102163.09;2518844;30;136445;-39
2021/10/11 20:05:25;;;;;;;;;;;9.90;99.90;;;8.15;96.58;102151.53;2568333;30;137888;-39
2021/10/11 20:07:53;;;;;;;5.82;1.92;;;9.80;99.90;;;8.12;96.32;102143.72;2566902;30;137403;-39
2021/10/11 20:10:24;;;;;;;3.47;1.80;;;9.80;99.90;;;8.11;96.27;102152.88;2570116;30;137437;-39
2021/10/11 20:12:52;;;;;;;4.80;1.70;;;9.80;99.90;;;8.07;96.28;102154.25;2570271;30;138277;-39
2021/10/11 20:15:21;;;;;;;3.80;1.98;;;9.70;99.90;;;8.02;95.94;102157.44;2568594;30;137714;-39
2021/10/11 20:17:48;;;;;;;3.72;1.75;;;9.70;99.90;;;7.95;95.76;102147.38;2569797;30;137911;-39
2021/10/11 20:20:16;;;;;;;4.45;1.73;;;9.60;99.90;;;7.89;95.69;102157.03;2570151;30;136637;-39
2021/10/11 20:22:44;;;;;;;;;;;9.50;99.90;;;7.86;95.87;102160.09;2570038;30;137527;-39
2021/10/11 20:25:13;;;;;;;6.03;1.80;;;9.50;99.90;;;7.77;95.48;102154.59;2569086;30;137094;-39
2021/10/11 20:27:43;;;;;;;3.75;1.80;;;9.50;99.90;;;7.79;95.39;102173.47;2569111;30;138408;-39
2021/10/11 20:30:12;;;;;;;4.47;1.80;;;9.40;99.90;;;7.74;95.49;102164.94;2567478;30;137390;-39
2021/10/11 20:32:41;;;;;;;5.32;1.95;;;9.40;99.90;;;7.71;95.63;102162.56;2569682;30;137151;-39
2021/10/11 20:35:09;;;;;;;4.93;2.00;;;9.40;99.90;;;7.68;95.47;102169.16;2572887;30;137368;-39
2021/10/11 20:37:37;;;;;;;3.88;1.70;;;9.30;99.90;;;7.67;95.64;102166.56;2567061;30;138731;-39
2021/10/11 20:40:05;;;;;;;;;;;9.30;99.90;;;7.68;96.01;102179.16;2569415;30;136902;-39
2021/10/11 20:42:33;;;;;;;4.00;1.70;;;9.30;99.90;;;7.69;96.51;102179.00;2567334;30;138334;-39
2021/10/11 20:45:00;;;;;;;4.57;1.73;;;9.30;99.90;;;7.72;96.93;102175.13;2568708;30;137511;-39
2021/10/11 20:47:28;;;;;;;4.05;1.92;;;9.30;99.90;;;7.71;97.18;102168.00;2566232;30;138096;-39
2021/10/11 20:49:56;;;;;;;4.30;1.80;;;9.30;99.90;;;7.71;97.69;102166.09;2569038;30;138189;-39
2021/10/11 20:52:23;;;;;;;5.60;1.80;;;9.30;99.90;;;7.76;98.25;102166.47;2567830;30;139121;-39
2021/10/11 20:54:51;;;;;;;3.25;1.67;;;9.40;99.90;;;7.75;98.90;102166.66;2568763;30;136970;-39
2021/10/11 20:57:19;;;;;;;6.05;1.90;;;9.40;99.90;;;7.80;99.00;102164.28;2568625;30;138018;-39
2021/10/11 20:59:46;;;;;;;5.10;2.00;;;9.40;99.90;;;7.86;99.31;102157.38;2572293;30;137585;-39
2021/10/11 21:02:14;;;;;;;4.78;2.20;;;9.40;99.90;;;7.90;99.92;102161.47;2569875;30;137376;-39
2021/10/11 21:04:42;;;;;;;4.10;1.98;;;9.50;99.90;;;7.97;100.00;102162.50;2568244;30;136879;-39
2021/10/11 21:07:09;;;;;;;5.10;2.38;;;9.50;99.90;;;8.01;100.00;102160.34;2569151;30;137680;-39
2021/10/11 21:09:38;;;;;;;7.13;2.40;;;9.60;99.90;;;8.05;100.00;102161.69;2569782;30;136832;-39
2021/10/11 21:12:06;;;;;;;7.30;2.67;;;9.60;99.90;;;8.08;100.00;102150.50;2570244;30;137901;-39
2021/10/11 21:14:33;;;;;;;5.78;2.60;;;9.60;99.90;;;8.11;100.00;102155.59;2568569;30;138374;-39
2021/10/11 21:17:05;;;;;;;7.93;2.42;;;9.70;99.90;;;8.15;100.00;102154.25;2568918;30;138532;-39
2021/10/11 21:19:32;;;;;;;6.13;2.72;;;9.70;99.90;;;8.18;100.00;102162.09;2568905;30;137455;-39
2021/10/11 21:22:00;;;;;;;7.43;2.78;;;9.80;99.90;;;8.24;100.00;102159.75;2568525;30;138526;-39
2021/10/11 21:24:28;;;;;;;5.80;2.38;;;9.80;99.90;;;8.27;100.00;102154.81;2569749;30;136772;-46
2021/10/11 21:26:56;;;;;;;;;;;9.80;99.90;;;8.28;100.00;102148.34;2566326;30;139072;-39
2021/10/11 21:29:23;;;;;;;5.28;2.33;;;9.80;99.90;;;8.31;100.00;102155.34;2568095;30;136864;-39
2021/10/11 21:31:51;;;;;;;5.88;2.80;;;9.90;99.90;;;8.37;100.00;102151.13;2568817;30;138366;-39
2021/10/11 21:34:18;;;;;;;7.32;2.97;;;9.90;99.90;;;8.41;100.00;102150.59;2567597;30;137799;-38
2021/10/11 21:36:46;;;;;;;5.57;3.05;;;10.00;99.90;;;8.44;100.00;102146.72;2567577;30;137422;-39
2021/10/11 21:39:13;;;;;;;6.07;2.60;;;10.00;99.90;;;8.47;100.00;102149.94;2566349;30;138358;-39
2021/10/11 21:41:41;;;;;;;8.88;3.78;;;10.00;99.90;;;8.52;100.00;102137.78;2566680;30;138797;-39
2021/10/11 21:44:08;;;;;;;9.07;3.35;;;10.10;99.90;;;8.56;100.00;102142.69;2569225;30;137615;-39
2021/10/11 21:46:36;;;;;;;8.25;2.97;;;10.10;99.90;;;8.57;100.00;102138.94;2568935;30;139006;-39
2021/10/11 21:49:04;;;;;;;5.30;2.88;;;10.10;99.90;;;8.61;100.00;102136.75;2570101;30;137386;-39
2021/10/11 21:51:31;;;;;;;6.47;3.03;;;10.20;99.90;;;8.62;100.00;102143.91;2571756;30;138100;-39
2021/10/11 21:53:59;;;;;;;6.72;3.30;;;10.20;99.90;;;8.65;100.00;102145.44;2568787;30;137057;-39
2021/10/11 21:56:27;;;;;;;7.00;2.83;;;10.20;99.90;;;8.68;100.00;102145.94;2568596;30;138537;-39
2021/10/11 21:58:54;;;;;;;7.05;2.90;;;10.20;99.90;;;8.67;100.00;102146.13;2567732;30;136812;-39
2021/10/11 22:01:22;;;;;;;9.05;2.78;;;10.30;99.90;;;8.71;100.00;102156.50;2568123;30;137262;-39
2021/10/11 22:03:50;;;;;;;5.75;2.88;;;10.20;99.90;;;8.68;100.00;102151.38;2570533;30;136914;-39
2021/10/11 22:06:17;;;;;;;6.93;3.05;;;10.30;99.90;;;8.69;100.00;102153.09;2569534;30;139089;-39
2021/10/11 22:08:45;;;;;;;7.43;2.97;;;10.20;99.90;;;8.69;100.00;102158.53;2570520;30;136620;-39
2021/10/11 22:11:12;;;;;;;5.93;2.95;;;10.20;99.90;;;8.69;100.00;102144.91;2568688;30;138287;-39
2021/10/11 22:13:40;;;;;;;6.70;2.78;;;10.20;99.90;;;8.70;100.00;102148.50;2569100;30;137752;-39
2021/10/11 22:16:08;;;;;;;5.60;2.88;;;10.30;99.90;;;8.68;100.00;102147.81;2569219;30;138245;-39
2021/10/11 22:18:35;;;;;;;5.72;3.33;;;10.20;99.90;;;8.71;100.00;102148.31;2569189;30;138540;-39
2021/10/11 22:21:03;;;;;;;4.68;2.60;;;10.30;99.90;;;8.71;100.00;102148.31;2570097;30;138208;-39
2021/10/11 22:23:30;;;;;;;8.70;3.63;;;10.30;99.90;;;8.72;100.00;102143.75;2570915;30;137654;-39
2021/10/11 22:25:58;;;;;;;7.00;2.90;;;10.30;99.90;;;8.72;100.00;102139.13;2568518;30;137830;-39
2021/10/11 22:28:27;;;;;;;7.97;2.72;;;10.30;99.90;;;8.72;100.00;102141.84;2569722;30;137713;-39
2021/10/11 22:30:54;;;;;;;7.53;2.70;;;10.30;99.90;;;8.70;100.00;102137.63;2568819;30;139079;-39
2021/10/11 22:33:22;;;;;;;6.43;3.10;;;10.30;99.90;;;8.69;100.00;102136.75;2569435;30;137213;-39
2021/10/11 22:35:50;;;;;;;;;;;10.20;99.90;;;8.68;100.00;102128.78;2571040;30;138792;-39
2021/10/11 22:38:17;;;;;;;6.30;2.72;;;10.30;99.90;;;8.67;100.00;102124.34;2567710;30;137381;-39
2021/10/11 22:40:45;;;;;;;6.22;2.78;;;10.20;99.90;;;8.65;100.00;102132.69;2571333;30;138327;-39
2021/10/11 22:43:13;;;;;;;5.93;2.83;;;10.20;99.90;;;8.64;100.00;102120.09;2570286;30;137587;-39
2021/10/11 22:45:40;;;;;;;8.77;3.25;;;10.20;99.90;;;8.63;100.00;102130.13;2571453;30;138281;-39
2021/10/11 22:48:08;;;;;;;7.18;2.65;;;10.20;99.90;;;8.62;100.00;102122.13;2570284;30;137490;-39
2021/10/11 22:50:39;;;;;;;8.18;3.22;;;10.20;99.90;;;8.64;100.00;102120.09;2570198;30;137532;-39
2021/10/11 22:53:06;;;;;;;5.30;2.75;;;10.20;99.90;;;8.65;100.00;102121.78;2569821;30;138032;-39
2021/10/11 22:55:34;;;;;;;5.18;2.85;;;10.20;99.90;;;8.68;100.00;102124.19;2572154;30;138348;-39
2021/10/11 22:58:02;;;;;;;6.10;2.58;;;10.20;99.90;;;8.69;100.00;102122.31;2572064;30;137362;-39
2021/10/11 23:00:30;;;;;;;5.68;3.17;;;10.20;99.90;;;8.68;100.00;102105.13;2569524;30;138167;-39
2021/10/11 23:03:00;;;;;;;5.57;2.30;;;10.30;99.90;;;8.69;100.00;102120.44;2571808;30;137548;-39
2021/10/11 23:05:28;;;;;;;6.05;2.95;;;10.20;99.90;;;8.70;100.00;102105.81;2568638;30;137643;-39
2021/10/11 23:07:56;;;;;;;8.07;2.63;;;10.20;99.90;;;8.70;100.00;102104.97;2571122;30;137351;-39
2021/10/11 23:10:25;;;;;;;7.68;3.20;;;10.30;99.90;;;8.67;100.00;102097.97;2569633;30;139197;-39
2021/10/11 23:12:53;;;;;;;5.85;2.95;;;10.20;99.90;;;8.71;100.00;102093.91;2569154;30;138327;-39
2021/10/11 23:15:21;;;;;;;9.25;3.22;;;10.20;99.90;;;8.70;100.00;102097.66;2569663;30;138285;-39
2021/10/11 23:17:48;;;;;;;6.18;2.83;;;10.20;99.90;;;8.73;100.00;102091.03;2568420;30;138057;-39
2021/10/11 23:20:17;;;;;;;8.38;3.92;;;10.30;99.90;;;8.73;100.00;102082.88;2570815;30;137415;-39
2021/10/11 23:22:48;;;;;;;7.28;2.90;;;10.30;99.90;;;8.76;100.00;102085.25;2570923;30;137488;-39
2021/10/11 23:25:17;;;;;;;6.97;3.22;;;10.30;99.90;;;8.78;100.00;102067.75;2567974;30;138222;-39
2021/10/11 23:27:47;;;;;;;7.13;3.05;;;10.30;99.90;;;8.80;100.00;102072.16;2569045;30;136760;-39
2021/10/11 23:30:15;;;;;;;10.45;3.03;;;10.30;99.90;;;8.86;100.00;102058.69;2569203;30;139269;-39
2021/10/11 23:32:46;;;;;;;7.90;3.10;;;10.40;99.90;;;8.88;100.00;102063.97;2568184;30;137694;-39
2021/10/11 23:35:15;;;;;;;6.53;3.22;;;10.40;99.90;;;8.86;100.00;102074.19;2568494;30;139173;-39
2021/10/11 23:37:43;;;;;;;6.32;3.08;;;10.40;99.90;;;8.84;100.00;102065.34;2567413;30;137950;-39
2021/10/11 23:40:11;;;;;;;6.13;2.92;;;10.40;99.90;;;8.87;100.00;102070.44;2568105;30;137231;-39
2021/10/11 23:42:42;;;;;;;7.28;2.92;;;10.40;99.90;;;8.85;100.00;102062.44;2569079;30;136730;-39
2021/10/11 23:45:11;;;;;;;9.20;3.10;;;10.40;99.90;;;8.86;100.00;102064.13;2569725;30;138314;-39
2021/10/11 23:47:39;;;;;;;7.55;2.88;;;10.40;99.90;;;8.85;100.00;102064.34;2570918;30;138308;-39
2021/10/11 23:50:08;;;;;;;9.25;3.15;;;10.40;99.90;;;8.85;100.00;102062.44;2569685;30;138558;-39
2021/10/11 23:52:36;;;;;;;6.80;2.97;;;10.40;99.90;;;8.87;100.00;102065.84;2569000;30;136912;-39
2021/10/11 23:55:05;;;;;;;7.00;2.60;;;10.40;99.90;;;8.87;100.00;102065.84;2569197;30;138234;-39
2021/10/11 23:57:32;;;;;;;6.40;2.95;;;10.40;99.90;;;8.88;100.00;102062.09;2567754;30;137029;-39
2021/10/11 23:59:59;;;;;;;5.75;2.88;;;10.40;99.90;;;8.90;100.00;102057.34;2568829;30;137409;-39
